Time;durP1;ratioP1;P1;durP2;ratioP2;P2;SDS_P1;SDS_P2;PMS_P1;PMS_P2;Temp;Humidity;BMP_temperature;BMP_pressure;BME280_temperature;BME280_humidity;BME280_pressure;Samples;Min_cycle;Max_cycle;Signal;HPM_P1;HPM_P2
2023/04/30 00:02:09;;;;;;;0.50;0.40;;;7.80;99.90;;;;;;5018727;28;20196;-79
2023/04/30 00:04:36;;;;;;;0.50;0.40;;;7.70;99.90;;;;;;5028466;28;20293;-79
2023/04/30 00:07:03;;;;;;;0.50;0.50;;;7.60;99.90;;;;;;5027409;28;20212;-79
2023/04/30 00:09:30;;;;;;;0.98;0.88;;;7.60;99.90;;;;;;5019865;28;20204;-78
2023/04/30 00:11:56;;;;;;;0.50;0.40;;;7.50;99.90;;;;;;5012059;28;20632;-78
2023/04/30 00:14:23;;;;;;;0.50;0.40;;;7.50;99.90;;;;;;5027112;28;20286;-78
2023/04/30 00:16:50;;;;;;;0.50;0.40;;;7.50;99.90;;;;;;5020624;28;20699;-78
2023/04/30 00:19:18;;;;;;;0.50;0.40;;;7.40;99.90;;;;;;5025729;28;20199;-78
2023/04/30 00:21:45;;;;;;;0.50;0.40;;;7.30;99.90;;;;;;5013464;28;20200;-77
2023/04/30 00:24:12;;;;;;;0.50;0.40;;;7.30;99.90;;;;;;5011718;28;20279;-76
2023/04/30 00:26:39;;;;;;;0.50;0.40;;;7.30;99.90;;;;;;5011398;28;20311;-78
2023/04/30 00:29:05;;;;;;;0.50;0.40;;;7.30;99.90;;;;;;5019433;28;20638;-77
2023/04/30 00:31:32;;;;;;;0.50;0.40;;;7.20;99.90;;;;;;5011847;28;20664;-76
2023/04/30 00:33:59;;;;;;;0.50;0.40;;;7.20;99.90;;;;;;5023372;28;20203;-79
2023/04/30 00:36:27;;;;;;;0.50;0.40;;;7.10;99.90;;;;;;5024776;28;20224;-79
2023/04/30 00:38:54;;;;;;;0.50;0.40;;;7.10;99.90;;;;;;5028294;28;20205;-79
2023/04/30 00:41:22;;;;;;;0.50;0.40;;;7.00;99.90;;;;;;5020612;28;20203;-78
2023/04/30 00:43:49;;;;;;;0.50;0.40;;;7.00;99.90;;;;;;5019385;28;20302;-78
2023/04/30 00:46:16;;;;;;;0.50;0.40;;;7.00;99.90;;;;;;5019719;28;20192;-79
2023/04/30 00:48:43;;;;;;;0.50;0.40;;;7.00;99.90;;;;;;5012420;28;20206;-78
2023/04/30 00:51:10;;;;;;;0.50;0.40;;;7.00;99.90;;;;;;5023047;28;20196;-79
2023/04/30 00:53:40;;;;;;;0.50;0.40;;;7.00;99.90;;;;;;5023667;28;20204;-76
2023/04/30 00:56:09;;;;;;;0.50;0.40;;;7.00;99.90;;;;;;5024308;28;20202;-77
2023/04/30 00:58:36;;;;;;;0.60;0.40;;;6.90;99.90;;;;;;5023156;28;20289;-79
2023/04/30 01:01:03;;;;;;;0.50;0.40;;;6.90;99.90;;;;;;5011825;28;20201;-78
2023/04/30 01:03:30;;;;;;;0.50;0.40;;;6.80;99.90;;;;;;5019380;28;20199;-78
2023/04/30 01:05:57;;;;;;;0.50;0.40;;;6.90;99.90;;;;;;5019218;28;20295;-78
2023/04/30 01:08:25;;;;;;;0.50;0.40;;;6.80;99.90;;;;;;5011446;28;20255;-78
2023/04/30 01:11:03;;;;;;;0.50;0.50;;;6.80;99.90;;;;;;5019227;28;20291;-78
2023/04/30 01:13:49;;;;;;;0.50;0.40;;;6.90;99.90;;;;;;5026514;28;20693;-78
2023/04/30 01:16:22;;;;;;;0.50;0.40;;;6.90;99.90;;;;;;5030683;28;20219;-79
2023/04/30 01:18:57;;;;;;;0.50;0.40;;;6.80;99.90;;;;;;5014279;28;20200;-77
2023/04/30 01:21:24;;;;;;;0.50;0.50;;;6.70;99.90;;;;;;5022829;28;20205;-78
2023/04/30 01:24:10;;;;;;;0.50;0.40;;;6.80;99.90;;;;;;5016141;28;20200;-79
2023/04/30 01:26:52;;;;;;;0.50;0.40;;;6.80;99.90;;;;;;5026201;28;20220;-79
2023/04/30 01:29:22;;;;;;;0.50;0.40;;;6.80;99.90;;;;;;5016620;28;20733;-77
2023/04/30 01:31:48;;;;;;;0.50;0.40;;;6.80;99.90;;;;;;5022508;28;20199;-78
2023/04/30 01:34:15;;;;;;;0.50;0.40;;;6.70;99.90;;;;;;5025715;28;20234;-78
2023/04/30 01:36:54;;;;;;;0.50;0.40;;;6.70;99.90;;;;;;5029747;28;20669;-78
2023/04/30 01:39:39;;;;;;;0.50;0.40;;;6.70;99.90;;;;;;5020587;28;20282;-77
2023/04/30 01:42:12;;;;;;;0.50;0.40;;;6.70;99.90;;;;;;5018527;28;20199;-78
2023/04/30 01:44:56;;;;;;;0.50;0.40;;;6.60;99.90;;;;;;5034137;28;20278;-75
2023/04/30 01:47:33;;;;;;;0.50;0.40;;;6.50;99.90;;;;;;5034293;28;20212;-78
2023/04/30 01:50:14;;;;;;;0.50;0.40;;;6.50;99.90;;;;;;5025569;28;20295;-78
2023/04/30 01:52:46;;;;;;;0.50;0.40;;;6.50;99.90;;;;;;5025771;28;20203;-78
2023/04/30 01:55:17;;;;;;;1.80;1.17;;;6.50;99.90;;;;;;5025966;28;20199;-78
2023/04/30 01:57:50;;;;;;;0.50;0.40;;;6.50;99.90;;;;;;5024975;28;20219;-78
2023/04/30 02:00:18;;;;;;;0.50;0.40;;;6.60;99.90;;;;;;5032487;28;20199;-78
2023/04/30 02:02:45;;;;;;;0.50;0.40;;;6.60;99.90;;;;;;5028304;28;20201;-80
2023/04/30 02:05:12;;;;;;;0.50;0.40;;;6.50;99.90;;;;;;5034003;28;20630;-79
2023/04/30 02:07:40;;;;;;;0.50;0.40;;;6.50;99.90;;;;;;5025734;28;20307;-78
2023/04/30 02:10:09;;;;;;;0.50;0.40;;;6.50;99.90;;;;;;5017724;28;20198;-78
2023/04/30 02:12:35;;;;;;;0.50;0.40;;;6.40;99.90;;;;;;5025485;28;20201;-78
2023/04/30 02:15:03;;;;;;;0.50;0.40;;;6.40;99.90;;;;;;5022619;28;20207;-78
2023/04/30 02:17:31;;;;;;;0.50;0.40;;;6.50;99.90;;;;;;5028435;28;20215;-78
2023/04/30 02:19:58;;;;;;;0.50;0.40;;;6.60;99.90;;;;;;5025271;28;20200;-79
2023/04/30 02:22:25;;;;;;;0.50;0.40;;;6.50;99.90;;;;;;5033783;28;20286;-78
2023/04/30 02:24:54;;;;;;;0.50;0.40;;;6.50;99.90;;;;;;5031796;28;20199;-77
2023/04/30 02:27:22;;;;;;;0.50;0.40;;;6.40;99.90;;;;;;5021625;28;20219;-79
2023/04/30 02:29:49;;;;;;;0.50;0.40;;;6.40;99.90;;;;;;5029947;28;20290;-78
2023/04/30 02:32:16;;;;;;;0.50;0.40;;;6.40;99.90;;;;;;5026778;28;20206;-74
2023/04/30 02:34:44;;;;;;;0.50;0.40;;;6.30;99.90;;;;;;5024730;28;20211;-75
2023/04/30 02:37:11;;;;;;;0.50;0.50;;;6.30;99.90;;;;;;5021451;28;20291;-77
2023/04/30 02:39:38;;;;;;;0.50;0.40;;;6.20;99.90;;;;;;5021139;28;20195;-79
2023/04/30 02:42:05;;;;;;;0.50;0.40;;;6.20;99.90;;;;;;5033335;28;20544;-79
2023/04/30 02:44:32;;;;;;;0.50;0.40;;;6.10;99.90;;;;;;5026244;28;20204;-79
2023/04/30 02:46:59;;;;;;;0.50;0.40;;;6.10;99.90;;;;;;5022819;28;20215;-79
2023/04/30 02:49:26;;;;;;;0.50;0.40;;;6.10;99.90;;;;;;5019010;28;20200;-78
2023/04/30 02:51:54;;;;;;;0.50;0.40;;;6.00;99.90;;;;;;5022951;28;20575;-78
2023/04/30 02:54:21;;;;;;;0.50;0.40;;;6.00;99.90;;;;;;5032993;28;20305;-78
2023/04/30 02:56:48;;;;;;;0.73;0.70;;;5.90;99.90;;;;;;5024125;28;20697;-78
2023/04/30 02:59:15;;;;;;;0.63;0.63;;;5.90;99.90;;;;;;5033003;28;20286;-78
2023/04/30 03:01:42;;;;;;;0.50;0.40;;;5.90;99.90;;;;;;5016750;28;20227;-78
2023/04/30 03:04:09;;;;;;;0.50;0.40;;;5.90;99.90;;;;;;5013006;28;20286;-79
2023/04/30 03:06:35;;;;;;;0.50;0.50;;;5.90;99.90;;;;;;5013270;28;20297;-79
2023/04/30 03:09:04;;;;;;;1.02;1.02;;;5.90;99.90;;;;;;5032156;28;20569;-78
2023/04/30 03:11:30;;;;;;;0.50;0.40;;;6.00;99.90;;;;;;5026398;28;20664;-78
2023/04/30 03:13:57;;;;;;;0.50;0.40;;;6.00;99.90;;;;;;5028794;28;20230;-79
2023/04/30 03:16:24;;;;;;;0.60;0.60;;;6.00;99.90;;;;;;5012629;28;20287;-76
2023/04/30 03:18:51;;;;;;;0.50;0.40;;;6.00;99.90;;;;;;5029648;28;20245;-78
2023/04/30 03:21:18;;;;;;;0.50;0.50;;;6.00;99.90;;;;;;5032554;28;20195;-78
2023/04/30 03:23:45;;;;;;;0.50;0.40;;;6.00;99.90;;;;;;5016123;28;20291;-79
2023/04/30 03:26:13;;;;;;;0.50;0.40;;;6.10;99.90;;;;;;5020789;28;20231;-79
2023/04/30 03:28:40;;;;;;;0.50;0.40;;;6.10;99.90;;;;;;5019882;28;20191;-78
2023/04/30 03:31:06;;;;;;;0.50;0.40;;;6.10;99.90;;;;;;5021311;28;20207;-78
2023/04/30 03:33:33;;;;;;;1.40;1.30;;;6.10;99.90;;;;;;5019009;28;20733;-78
2023/04/30 03:36:00;;;;;;;6.82;2.15;;;6.10;99.90;;;;;;5032210;28;20199;-79
2023/04/30 03:38:27;;;;;;;1.67;1.58;;;6.10;99.90;;;;;;5023660;28;20305;-77
2023/04/30 03:40:54;;;;;;;0.50;0.43;;;6.10;99.90;;;;;;5014382;28;20204;-78
2023/04/30 03:43:22;;;;;;;0.50;0.40;;;6.00;99.90;;;;;;5025125;28;20286;-78
2023/04/30 03:45:49;;;;;;;0.50;0.40;;;5.90;99.90;;;;;;5031876;28;20670;-77
2023/04/30 03:48:16;;;;;;;0.50;0.40;;;5.90;99.90;;;;;;5027901;28;20235;-78
2023/04/30 03:50:43;;;;;;;0.65;0.65;;;5.90;99.90;;;;;;5012242;28;20196;-79
2023/04/30 03:53:10;;;;;;;1.52;1.45;;;5.80;99.90;;;;;;5012273;28;20262;-79
2023/04/30 03:55:37;;;;;;;0.50;0.40;;;5.80;99.90;;;;;;5020243;28;20196;-78
2023/04/30 03:58:03;;;;;;;0.50;0.40;;;5.80;99.90;;;;;;5022230;28;20236;-78
2023/04/30 04:00:32;;;;;;;0.50;0.40;;;5.80;99.90;;;;;;5031557;28;20664;-77
2023/04/30 04:02:59;;;;;;;0.50;0.40;;;5.70;99.90;;;;;;5013864;28;20203;-78
2023/04/30 04:05:26;;;;;;;0.50;0.40;;;5.70;99.90;;;;;;5026324;28;20282;-81
2023/04/30 04:07:52;;;;;;;0.50;0.40;;;5.70;99.90;;;;;;5032332;28;20251;-79
2023/04/30 04:10:19;;;;;;;0.50;0.40;;;5.70;99.90;;;;;;5032400;28;20195;-80
2023/04/30 04:12:46;;;;;;;0.50;0.40;;;5.80;99.90;;;;;;5032513;28;20229;-80
2023/04/30 04:15:13;;;;;;;0.50;0.40;;;5.80;99.90;;;;;;5032508;28;20257;-80
2023/04/30 04:17:41;;;;;;;0.50;0.40;;;5.80;99.90;;;;;;5025069;28;20235;-78
2023/04/30 04:20:09;;;;;;;4.82;4.55;;;5.70;99.90;;;;;;5031325;28;20209;-80
2023/04/30 04:22:36;;;;;;;0.50;0.40;;;5.70;99.90;;;;;;5032407;28;20627;-79
2023/04/30 04:25:03;;;;;;;0.60;0.60;;;5.70;99.90;;;;;;5032223;28;20294;-79
2023/04/30 04:27:30;;;;;;;0.50;0.40;;;5.70;99.90;;;;;;5031669;28;20251;-79
2023/04/30 04:29:56;;;;;;;0.50;0.40;;;5.70;99.90;;;;;;5032190;28;20205;-79
2023/04/30 04:32:23;;;;;;;0.88;0.85;;;5.80;99.90;;;;;;5032495;28;20701;-79
2023/04/30 04:34:53;;;;;;;0.50;0.40;;;5.80;99.90;;;;;;5031602;28;20245;-77
2023/04/30 04:37:20;;;;;;;0.50;0.47;;;5.80;99.90;;;;;;5031892;28;20219;-79
2023/04/30 04:39:47;;;;;;;0.50;0.40;;;5.90;99.90;;;;;;5032303;28;20293;-79
2023/04/30 04:42:15;;;;;;;0.50;0.40;;;5.90;99.90;;;;;;5032201;28;20234;-79
2023/04/30 04:44:42;;;;;;;0.50;0.40;;;5.90;99.90;;;;;;5032039;28;20210;-79
2023/04/30 04:47:11;;;;;;;0.60;0.60;;;6.00;99.90;;;;;;5032000;28;20354;-75
2023/04/30 04:49:38;;;;;;;0.50;0.40;;;6.00;99.90;;;;;;5032335;28;20282;-80
2023/04/30 04:52:06;;;;;;;0.50;0.40;;;6.00;99.90;;;;;;5032145;28;20195;-79
2023/04/30 04:54:33;;;;;;;0.50;0.50;;;6.00;99.90;;;;;;5026257;28;20206;-79
2023/04/30 04:57:01;;;;;;;0.50;0.40;;;6.00;99.90;;;;;;5029846;28;20302;-80
2023/04/30 04:59:29;;;;;;;0.90;0.90;;;6.00;99.90;;;;;;5026971;28;20258;-80
2023/04/30 05:01:56;;;;;;;1.00;1.00;;;6.10;99.90;;;;;;5029604;28;20210;-79
2023/04/30 05:04:23;;;;;;;0.50;0.40;;;6.20;99.90;;;;;;5032264;28;20226;-79
2023/04/30 05:06:49;;;;;;;0.75;0.75;;;6.20;99.90;;;;;;5032101;28;20229;-79
2023/04/30 05:09:17;;;;;;;2.50;2.38;;;6.30;99.90;;;;;;5024093;28;20215;-79
2023/04/30 05:11:45;;;;;;;0.50;0.47;;;6.30;99.90;;;;;;5034758;28;20369;-81
2023/04/30 05:14:12;;;;;;;0.73;0.73;;;6.30;99.90;;;;;;5036809;28;20208;-81
2023/04/30 05:16:38;;;;;;;0.93;0.93;;;6.40;99.90;;;;;;5036713;28;20258;-80
2023/04/30 05:19:08;;;;;;;0.50;0.40;;;6.50;99.90;;;;;;5037568;28;20223;-80
2023/04/30 05:21:35;;;;;;;0.50;0.40;;;6.50;99.90;;;;;;5037457;28;20199;-80
2023/04/30 05:24:04;;;;;;;0.50;0.40;;;6.60;99.90;;;;;;5037129;28;20202;-80
2023/04/30 05:26:32;;;;;;;4.38;4.07;;;6.70;99.90;;;;;;5036793;28;20714;-79
2023/04/30 05:28:59;;;;;;;2.08;1.98;;;6.70;99.90;;;;;;5036140;28;20202;-80
2023/04/30 05:31:26;;;;;;;0.50;0.40;;;6.80;99.90;;;;;;5036709;28;20326;-82
2023/04/30 05:33:53;;;;;;;1.15;0.85;;;6.90;99.90;;;;;;5037363;28;20650;-78
2023/04/30 05:36:19;;;;;;;2.80;1.48;;;7.00;99.90;;;;;;5036692;28;20195;-80
2023/04/30 05:38:46;;;;;;;0.50;0.40;;;7.10;99.90;;;;;;5037568;28;20226;-81
2023/04/30 05:41:13;;;;;;;1.85;1.05;;;7.20;99.90;;;;;;5036230;28;20199;-80
2023/04/30 05:43:41;;;;;;;0.50;0.40;;;7.20;99.90;;;;;;5030170;28;20200;-81
2023/04/30 05:46:08;;;;;;;0.50;0.40;;;7.40;99.90;;;;;;5034406;28;20290;-77
2023/04/30 05:48:35;;;;;;;0.60;0.60;;;7.40;99.90;;;;;;5036474;28;20282;-81
2023/04/30 05:51:02;;;;;;;1.15;1.02;;;7.60;99.90;;;;;;5035773;28;20199;-80
2023/04/30 05:53:28;;;;;;;0.50;0.40;;;7.70;99.90;;;;;;5036662;28;20204;-80
2023/04/30 05:55:55;;;;;;;0.75;0.65;;;7.80;99.90;;;;;;5036231;28;20581;-80
2023/04/30 05:58:22;;;;;;;1.50;1.40;;;8.30;99.90;;;;;;5036016;28;20757;-81
2023/04/30 06:00:51;;;;;;;0.55;0.52;;;9.10;99.90;;;;;;5035873;28;20273;-80
2023/04/30 06:03:19;;;;;;;0.77;0.77;;;10.40;99.90;;;;;;5036166;28;20663;-76
2023/04/30 06:05:46;;;;;;;1.33;1.15;;;11.20;99.90;;;;;;5036335;28;20698;-80
2023/04/30 06:08:13;;;;;;;0.50;0.40;;;11.80;99.90;;;;;;5035721;28;20631;-80
2023/04/30 06:10:40;;;;;;;1.87;1.73;;;12.50;99.90;;;;;;5036595;28;20202;-80
2023/04/30 06:13:07;;;;;;;1.93;1.83;;;13.10;99.90;;;;;;5035765;28;20537;-81
2023/04/30 06:15:34;;;;;;;0.67;0.67;;;13.80;99.90;;;;;;5036166;28;20442;-80
2023/04/30 06:18:02;;;;;;;0.50;0.40;;;14.60;99.90;;;;;;5026990;28;20478;-81
2023/04/30 06:20:29;;;;;;;2.03;1.90;;;15.50;99.90;;;;;;5035538;28;20484;-81
2023/04/30 06:22:56;;;;;;;0.70;0.70;;;16.50;99.90;;;;;;5035715;28;20885;-79
2023/04/30 06:25:22;;;;;;;0.63;0.60;;;17.40;99.90;;;;;;5035864;28;20456;-79
2023/04/30 06:27:50;;;;;;;0.70;0.43;;;18.20;99.90;;;;;;5035690;28;20466;-81
2023/04/30 06:30:17;;;;;;;0.50;0.30;;;18.90;99.90;;;;;;5027334;28;20639;-81
2023/04/30 06:32:44;;;;;;;0.60;0.60;;;19.40;99.90;;;;;;5036151;28;20981;-81
2023/04/30 06:35:12;;;;;;;0.70;0.70;;;20.00;97.30;;;;;;5034739;28;20452;-79
2023/04/30 06:37:39;;;;;;;0.50;0.40;;;20.40;93.70;;;;;;5035156;28;20493;-78
2023/04/30 06:40:07;;;;;;;0.50;0.30;;;20.90;91.10;;;;;;5035601;28;20553;-81
2023/04/30 06:42:34;;;;;;;1.47;1.47;;;21.40;90.60;;;;;;5035775;28;20449;-80
2023/04/30 06:45:01;;;;;;;0.50;0.30;;;21.90;87.90;;;;;;5035111;28;20449;-80
2023/04/30 06:47:28;;;;;;;0.83;0.83;;;22.20;84.70;;;;;;5035292;28;20972;-80
2023/04/30 06:49:55;;;;;;;0.50;0.40;;;22.60;80.10;;;;;;5034932;28;20533;-79
2023/04/30 06:52:23;;;;;;;0.70;0.43;;;22.90;79.50;;;;;;5027022;28;20521;-80
2023/04/30 06:54:50;;;;;;;0.50;0.40;;;23.30;77.90;;;;;;5035307;28;21152;-80
2023/04/30 06:57:17;;;;;;;0.50;0.40;;;23.70;75.30;;;;;;5034942;28;20676;-80
2023/04/30 06:59:44;;;;;;;0.50;0.40;;;23.70;74.40;;;;;;5034727;28;20477;-81
2023/04/30 07:02:10;;;;;;;0.60;0.50;;;24.40;73.80;;;;;;5035384;28;20442;-82
2023/04/30 07:04:37;;;;;;;0.87;0.40;;;24.60;69.80;;;;;;5034571;28;20881;-80
2023/04/30 07:07:04;;;;;;;0.50;0.30;;;24.40;69.30;;;;;;5034409;28;20545;-80
2023/04/30 07:09:32;;;;;;;0.50;0.50;;;24.40;70.60;;;;;;5035073;28;20438;-82
2023/04/30 07:11:59;;;;;;;0.50;0.30;;;24.70;68.80;;;;;;5034776;28;20849;-81
2023/04/30 07:14:26;;;;;;;0.50;0.30;;;24.90;69.10;;;;;;5034084;28;20438;-81
2023/04/30 07:16:53;;;;;;;0.50;0.30;;;25.20;68.80;;;;;;5034996;28;20548;-80
2023/04/30 07:19:20;;;;;;;0.50;0.30;;;25.70;67.60;;;;;;5030646;28;21005;-81
2023/04/30 07:21:46;;;;;;;10.73;1.83;;;26.20;65.60;;;;;;5029937;28;20442;-81
2023/04/30 07:24:13;;;;;;;0.70;0.63;;;26.80;63.50;;;;;;5034231;28;20453;-81
2023/04/30 07:26:42;;;;;;;0.50;0.30;;;27.40;62.60;;;;;;5034428;28;20807;-80
2023/04/30 07:29:09;;;;;;;1.33;1.23;;;27.40;60.20;;;;;;5033648;28;20818;-81
2023/04/30 07:31:35;;;;;;;0.50;0.40;;;27.40;59.50;;;;;;5033897;28;20473;-79
2023/04/30 07:34:02;;;;;;;0.50;0.30;;;27.60;60.60;;;;;;5033577;28;20473;-81
2023/04/30 07:36:29;;;;;;;0.50;0.30;;;27.40;58.80;;;;;;5033903;28;20464;-81
2023/04/30 07:38:56;;;;;;;0.50;0.30;;;27.50;59.40;;;;;;5033778;28;20473;-80
2023/04/30 07:41:25;;;;;;;0.50;0.30;;;27.90;57.60;;;;;;5034070;28;20528;-81
2023/04/30 07:43:53;;;;;;;0.50;0.30;;;27.40;57.80;;;;;;5033889;28;20454;-81
2023/04/30 07:46:20;;;;;;;0.50;0.30;;;27.40;57.90;;;;;;5034018;28;20449;-81
2023/04/30 07:48:46;;;;;;;0.50;0.30;;;27.50;57.50;;;;;;5034103;28;20441;-80
2023/04/30 07:51:13;;;;;;;0.50;0.30;;;27.30;57.30;;;;;;5033154;28;20529;-81
2023/04/30 07:53:40;;;;;;;0.60;0.60;;;27.20;59.10;;;;;;5034235;28;20473;-81
2023/04/30 07:56:07;;;;;;;0.80;0.50;;;27.90;59.20;;;;;;5033114;28;20529;-81
2023/04/30 07:58:34;;;;;;;0.50;0.30;;;28.80;57.80;;;;;;5033605;28;20484;-80
2023/04/30 08:01:02;;;;;;;0.70;0.50;;;29.20;57.30;;;;;;5033963;28;20450;-79
2023/04/30 08:03:29;;;;;;;0.50;0.47;;;29.50;56.10;;;;;;5034037;28;20446;-82
2023/04/30 08:05:56;;;;;;;0.50;0.30;;;30.10;55.60;;;;;;5034078;28;20553;-82
2023/04/30 08:08:23;;;;;;;0.60;0.50;;;30.20;54.50;;;;;;5033218;28;20557;-80
2023/04/30 08:10:50;;;;;;;0.50;0.40;;;30.30;54.70;;;;;;5027460;28;20451;-80
2023/04/30 08:13:16;;;;;;;0.50;0.30;;;30.30;53.20;;;;;;5031737;28;20446;-81
2023/04/30 08:15:43;;;;;;;0.50;0.30;;;29.80;53.90;;;;;;5034005;28;21005;-80
2023/04/30 08:18:11;;;;;;;0.50;0.30;;;30.00;52.90;;;;;;5034712;28;20549;-79
2023/04/30 08:20:39;;;;;;;0.50;0.30;;;30.30;52.60;;;;;;5033807;28;20448;-80
2023/04/30 08:23:05;;;;;;;0.50;0.40;;;30.40;52.50;;;;;;5033684;28;20449;-79
2023/04/30 08:25:33;;;;;;;0.50;0.30;;;30.30;54.60;;;;;;5033358;28;20452;-80
2023/04/30 08:27:59;;;;;;;0.50;0.40;;;30.30;53.30;;;;;;5033878;28;20866;-80
2023/04/30 08:30:26;;;;;;;0.50;0.30;;;30.40;52.70;;;;;;5033013;28;20469;-79
2023/04/30 08:32:53;;;;;;;0.50;0.50;;;30.80;52.70;;;;;;5033457;28;20453;-79
2023/04/30 08:35:21;;;;;;;0.50;0.30;;;31.20;52.10;;;;;;5033165;28;20468;-81
2023/04/30 08:37:49;;;;;;;0.50;0.50;;;31.60;52.50;;;;;;5033841;28;21012;-80
2023/04/30 08:40:16;;;;;;;0.60;0.50;;;31.70;53.40;;;;;;5032674;28;20473;-79
2023/04/30 08:42:50;;;;;;;3.90;2.10;;;32.20;50.30;;;;;;5033712;28;20832;-81
2023/04/30 08:45:18;;;;;;;0.50;0.40;;;32.00;49.90;;;;;;5033947;28;20452;-79
2023/04/30 08:47:45;;;;;;;0.50;0.30;;;32.30;49.20;;;;;;5037559;28;20487;-81
2023/04/30 08:50:12;;;;;;;0.50;0.40;;;32.00;48.20;;;;;;5036781;28;20445;-81
2023/04/30 08:52:43;;;;;;;0.50;0.50;;;31.70;50.10;;;;;;5036807;28;20540;-81
2023/04/30 08:55:11;;;;;;;0.50;0.30;;;32.20;50.70;;;;;;5037046;28;20446;-81
2023/04/30 08:57:38;;;;;;;0.50;0.30;;;32.40;48.80;;;;;;5036735;28;20524;-79
2023/04/30 09:00:06;;;;;;;0.50;0.30;;;33.00;50.90;;;;;;5036679;28;20543;-80
2023/04/30 09:02:34;;;;;;;0.50;0.40;;;34.00;48.50;;;;;;5036873;28;20446;-79
2023/04/30 09:05:00;;;;;;;0.50;0.30;;;32.80;48.70;;;;;;5036957;28;20541;-81
2023/04/30 09:07:28;;;;;;;0.50;0.30;;;33.20;48.40;;;;;;5037046;28;20544;-81
2023/04/30 09:09:57;;;;;;;0.50;0.30;;;33.00;48.40;;;;;;5036821;28;20446;-80
2023/04/30 09:12:24;;;;;;;1.70;1.60;;;32.90;47.60;;;;;;5036651;28;20540;-80
2023/04/30 09:15:03;;;;;;;0.50;0.30;;;32.50;47.40;;;;;;5036897;28;20450;-79
2023/04/30 09:17:30;;;;;;;0.50;0.40;;;32.50;48.70;;;;;;5035890;28;20504;-80
2023/04/30 09:20:08;;;;;;;0.50;0.40;;;31.90;50.70;;;;;;5037869;28;21018;-78
2023/04/30 09:22:36;;;;;;;0.50;0.50;;;32.30;47.50;;;;;;5034277;28;20442;-77
2023/04/30 09:25:05;;;;;;;0.50;0.37;;;31.90;48.10;;;;;;5041889;28;20453;-81
2023/04/30 09:27:32;;;;;;;0.50;0.30;;;32.30;50.70;;;;;;5028069;28;20504;-81
2023/04/30 09:30:00;;;;;;;0.50;0.30;;;32.60;50.60;;;;;;5036121;28;20466;-81
2023/04/30 09:32:27;;;;;;;0.50;0.40;;;32.60;47.30;;;;;;5036327;28;20446;-82
2023/04/30 09:34:53;;;;;;;0.50;0.37;;;31.90;48.00;;;;;;5036806;28;20464;-80
2023/04/30 09:37:20;;;;;;;0.50;0.30;;;32.30;47.70;;;;;;5035764;28;20459;-81
2023/04/30 09:39:49;;;;;;;0.50;0.30;;;32.00;47.10;;;;;;5035964;28;20564;-80
2023/04/30 09:42:18;;;;;;;0.50;0.30;;;31.90;47.60;;;;;;5036205;28;20450;-80
2023/04/30 09:44:46;;;;;;;0.50;0.47;;;32.40;48.70;;;;;;5036700;28;20453;-81
2023/04/30 09:47:15;;;;;;;1.07;0.70;;;32.00;49.60;;;;;;5035565;28;20556;-79
2023/04/30 09:49:43;;;;;;;0.50;0.30;;;31.90;48.90;;;;;;5035835;28;20933;-81
2023/04/30 09:52:11;;;;;;;0.50;0.40;;;32.00;48.20;;;;;;5036448;28;20477;-80
2023/04/30 09:54:39;;;;;;;0.50;0.30;;;32.00;47.30;;;;;;5036567;28;20446;-80
2023/04/30 09:57:10;;;;;;;0.50;0.30;;;32.10;49.50;;;;;;5035743;28;20942;-81
2023/04/30 09:59:39;;;;;;;0.50;0.30;;;32.00;48.80;;;;;;5027861;28;20469;-81
2023/04/30 10:02:07;;;;;;;0.60;0.60;;;32.20;48.20;;;;;;5036276;28;20446;-81
2023/04/30 10:04:36;;;;;;;0.50;0.30;;;32.20;47.90;;;;;;5027592;28;20495;-80
2023/04/30 10:07:05;;;;;;;0.70;0.60;;;32.60;48.20;;;;;;5035346;28;20462;-80
2023/04/30 10:09:41;;;;;;;1.33;1.23;;;32.20;46.60;;;;;;5028128;28;20438;-80
2023/04/30 10:12:14;;;;;;;0.50;0.30;;;31.00;47.20;;;;;;5036326;28;20808;-80
2023/04/30 10:14:49;;;;;;;0.50;0.30;;;31.00;49.70;;;;;;5028687;28;20457;-80
2023/04/30 10:17:18;;;;;;;0.50;0.40;;;31.10;48.20;;;;;;5035827;28;20472;-81
2023/04/30 10:19:48;;;;;;;1.10;1.10;;;31.10;48.40;;;;;;5035325;28;20478;-80
2023/04/30 10:22:15;;;;;;;0.50;0.30;;;31.50;49.40;;;;;;5035543;28;20447;-79
2023/04/30 10:24:43;;;;;;;0.50;0.30;;;32.10;50.20;;;;;;5035391;28;21005;-80
2023/04/30 10:27:10;;;;;;;0.50;0.30;;;32.00;48.80;;;;;;5034574;28;20474;-78
2023/04/30 10:29:37;;;;;;;0.50;0.30;;;31.90;47.10;;;;;;5035243;28;21112;-80
2023/04/30 10:32:07;;;;;;;0.50;0.30;;;31.40;47.50;;;;;;5035192;28;20509;-80
2023/04/30 10:34:44;;;;;;;0.50;0.30;;;31.20;47.90;;;;;;5034882;28;20446;-81
2023/04/30 10:37:19;;;;;;;0.50;0.30;;;31.30;50.40;;;;;;5035430;28;20462;-77
2023/04/30 10:39:46;;;;;;;0.50;0.30;;;30.60;47.00;;;;;;5035236;28;20501;-80
2023/04/30 10:42:13;;;;;;;0.50;0.30;;;31.20;48.70;;;;;;5034936;28;20538;-80
2023/04/30 10:44:40;;;;;;;0.50;0.30;;;31.00;47.20;;;;;;5035255;28;20473;-81
2023/04/30 10:47:10;;;;;;;0.50;0.30;;;31.10;49.00;;;;;;5035222;28;20492;-80
2023/04/30 10:49:37;;;;;;;1.90;0.70;;;31.30;49.60;;;;;;5026441;28;20953;-81
2023/04/30 10:52:05;;;;;;;0.73;0.40;;;31.90;48.90;;;;;;5034752;28;20438;-80
2023/04/30 10:54:33;;;;;;;0.50;0.40;;;32.20;49.50;;;;;;5035090;28;20450;-80
2023/04/30 10:57:11;;;;;;;0.50;0.30;;;32.10;47.40;;;;;;5035370;28;20493;-80
2023/04/30 10:59:38;;;;;;;1.13;1.03;;;32.20;47.60;;;;;;5027754;28;20485;-79
2023/04/30 11:02:05;;;;;;;0.50;0.30;;;32.60;46.20;;;;;;5035667;28;20442;-81
2023/04/30 11:04:33;;;;;;;0.60;0.50;;;32.40;45.70;;;;;;5034861;28;20516;-80
2023/04/30 11:07:09;;;;;;;0.50;0.30;;;32.00;46.10;;;;;;5035306;28;20550;-80
2023/04/30 11:09:41;;;;;;;0.50;0.30;;;31.70;47.50;;;;;;5033767;28;20971;-80
2023/04/30 11:12:13;;;;;;;0.50;0.30;;;31.60;47.00;;;;;;5036332;28;20446;-81
2023/04/30 11:14:42;;;;;;;0.47;0.30;;;31.70;47.40;;;;;;5027007;28;20429;-80
2023/04/30 11:17:11;;;;;;;0.90;0.90;;;31.90;48.70;;;;;;5034255;28;20497;-80
2023/04/30 11:19:47;;;;;;;0.50;0.30;;;31.40;47.80;;;;;;5136112;22;20474;-78
2023/04/30 11:22:19;;;;;;;0.50;0.30;;;31.60;47.20;;;;;;5100908;28;20443;-77
2023/04/30 11:25:04;;;;;;;0.50;0.30;;;32.00;45.60;;;;;;5100781;28;20443;-77
2023/04/30 11:27:32;;;;;;;0.50;0.40;;;31.90;44.60;;;;;;5102676;28;20935;-77
2023/04/30 11:29:59;;;;;;;0.50;0.30;;;31.60;46.30;;;;;;5077530;28;20439;-78
2023/04/30 11:32:31;;;;;;;0.47;0.30;;;31.50;45.90;;;;;;5082146;28;20464;-78
2023/04/30 11:35:00;;;;;;;0.50;0.30;;;31.10;45.70;;;;;;5083699;28;20953;-77
2023/04/30 11:37:31;;;;;;;0.50;0.30;;;31.00;46.30;;;;;;5082009;28;20444;-78
2023/04/30 11:40:01;;;;;;;0.60;0.50;;;31.30;47.90;;;;;;5080151;28;20551;-78
2023/04/30 11:42:29;;;;;;;0.50;0.30;;;31.30;47.00;;;;;;5082071;28;20537;-78
2023/04/30 11:45:07;;;;;;;0.50;0.40;;;31.60;46.90;;;;;;5083745;28;20816;-78
2023/04/30 11:47:41;;;;;;;0.50;0.30;;;31.20;48.20;;;;;;5080637;28;20445;-79
2023/04/30 11:50:11;;;;;;;0.50;0.30;;;31.30;46.00;;;;;;5080131;28;20479;-78
2023/04/30 11:52:38;;;;;;;0.50;0.40;;;31.50;46.50;;;;;;5083364;28;20440;-78
2023/04/30 11:55:16;;;;;;;0.50;0.30;;;31.30;45.90;;;;;;5083475;28;20439;-78
2023/04/30 11:57:45;;;;;;;0.50;0.30;;;29.80;44.90;;;;;;5072017;28;20528;-78
2023/04/30 12:00:14;;;;;;;0.50;0.30;;;28.10;47.00;;;;;;5079481;28;20843;-77
2023/04/30 12:02:41;;;;;;;0.50;0.30;;;27.90;50.40;;;;;;5079938;28;20511;-77
2023/04/30 12:05:18;;;;;;;0.50;0.30;;;28.20;47.80;;;;;;5079939;28;20531;-78
2023/04/30 12:07:50;;;;;;;0.87;0.87;;;28.00;48.30;;;;;;5072207;28;20811;-78
2023/04/30 12:10:20;;;;;;;0.50;0.40;;;27.90;49.70;;;;;;5079819;28;20918;-77
2023/04/30 12:12:48;;;;;;;0.50;0.30;;;28.40;49.00;;;;;;5083689;28;20465;-78
2023/04/30 12:15:16;;;;;;;0.50;0.30;;;28.60;48.70;;;;;;5083373;28;21153;-77
2023/04/30 12:17:44;;;;;;;1.13;1.13;;;28.20;49.20;;;;;;5079449;28;20977;-78
2023/04/30 12:20:13;;;;;;;0.50;0.30;;;28.20;49.70;;;;;;5087384;28;20475;-77
2023/04/30 12:22:42;;;;;;;0.50;0.30;;;27.60;51.30;;;;;;5079895;28;20497;-78
2023/04/30 12:25:12;;;;;;;0.50;0.30;;;27.60;49.30;;;;;;5079626;28;20444;-78
2023/04/30 12:27:40;;;;;;;0.50;0.30;;;27.00;50.10;;;;;;5082376;28;20463;-78
2023/04/30 12:30:09;;;;;;;0.50;0.30;;;26.60;51.10;;;;;;5083103;28;20889;-78
2023/04/30 12:32:41;;;;;;;0.50;0.30;;;27.00;53.50;;;;;;5080078;28;20998;-78
2023/04/30 12:35:09;;;;;;;0.60;0.60;;;27.10;50.30;;;;;;5079531;28;20450;-78
2023/04/30 12:37:36;;;;;;;0.50;0.30;;;26.40;52.60;;;;;;5079151;28;20886;-77
2023/04/30 12:40:07;;;;;;;0.50;0.30;;;25.60;52.10;;;;;;5079000;28;21081;-78
2023/04/30 12:42:35;;;;;;;3.30;1.03;;;25.80;53.20;;;;;;5081438;28;20519;-78
2023/04/30 12:45:02;;;;;;;0.50;0.30;;;26.10;53.70;;;;;;5076789;28;20479;-77
2023/04/30 12:47:30;;;;;;;0.50;0.30;;;25.80;52.50;;;;;;5080811;28;20534;-78
2023/04/30 12:49:57;;;;;;;0.50;0.30;;;25.20;53.00;;;;;;5082643;28;20475;-78
2023/04/30 12:52:26;;;;;;;0.50;0.30;;;24.50;53.90;;;;;;5081623;28;20443;-78
2023/04/30 12:54:53;;;;;;;0.50;0.30;;;24.20;57.00;;;;;;5078972;28;20447;-78
2023/04/30 12:57:21;;;;;;;0.50;0.30;;;23.70;55.20;;;;;;5079176;28;20443;-78